Time;durP1;ratioP1;P1;durP2;ratioP2;P2;SDS_P1;SDS_P2;PMS_P1;PMS_P2;Temp;Humidity;BMP_temperature;BMP_pressure;BME280_temperature;BME280_humidity;BME280_pressure;Samples;Min_cycle;Max_cycle;Signal;HPM_P1;HPM_P2
2022/04/13 00:02:20;;;;;;;;;;;12.50;99.90;;;;;;4976023;28;19970;-78
2022/04/13 00:04:45;;;;;;;;;;;12.50;99.90;;;;;;4976026;28;19932;-78
2022/04/13 00:07:11;;;;;;;;;;;12.40;99.90;;;;;;4959941;28;19922;-78
2022/04/13 00:09:36;;;;;;;;;;;12.40;99.90;;;;;;4975608;28;20389;-78
2022/04/13 00:12:03;;;;;;;;;;;12.40;99.90;;;;;;4974734;28;19926;-78
2022/04/13 00:14:29;;;;;;;;;;;12.30;99.90;;;;;;4974576;28;19926;-78
2022/04/13 00:16:55;;;;;;;;;;;12.30;99.90;;;;;;4975472;28;20055;-78
2022/04/13 00:19:21;;;;;;;;;;;12.30;99.90;;;;;;4975020;28;19965;-78
2022/04/13 00:21:47;;;;;;;;;;;12.30;99.90;;;;;;4959248;28;20359;-78
2022/04/13 00:24:13;;;;;;;;;;;12.20;99.90;;;;;;4975010;28;19957;-78
2022/04/13 00:26:38;;;;;;;;;;;12.00;99.90;;;;;;4974228;28;19926;-78
2022/04/13 00:29:04;;;;;;;;;;;11.90;99.90;;;;;;4974948;28;19926;-78
2022/04/13 00:31:30;;;;;;;;;;;11.90;99.90;;;;;;4975073;28;19926;-78
2022/04/13 00:33:55;;;;;;;;;;;11.80;99.90;;;;;;4974903;28;20404;-78
2022/04/13 00:36:21;;;;;;;;;;;11.70;99.90;;;;;;4974627;28;19921;-78
2022/04/13 00:38:46;;;;;;;;;;;11.70;99.90;;;;;;4975086;28;19929;-78
2022/04/13 00:41:12;;;;;;;;;;;11.60;99.90;;;;;;4974046;28;19929;-78
2022/04/13 00:43:38;;;;;;;;;;;11.60;99.90;;;;;;4973927;28;20307;-78
2022/04/13 00:46:03;;;;;;;;;;;11.60;99.90;;;;;;4974682;28;19922;-78
2022/04/13 00:48:36;;;;;;;;;;;11.60;99.90;;;;;;4975148;28;19929;-78
2022/04/13 00:51:03;;;;;;;;;;;11.60;99.90;;;;;;4975048;28;19974;-78
2022/04/13 00:53:30;;;;;;;;;;;11.60;99.90;;;;;;4977492;28;19925;-78
2022/04/13 00:55:56;;;;;;;;;;;11.60;99.90;;;;;;4975900;28;20412;-78
2022/04/13 00:58:23;;;;;;;;;;;11.60;99.90;;;;;;4977468;28;19921;-78
2022/04/13 01:00:49;;;;;;;;;;;11.50;99.90;;;;;;4978352;28;19932;-78
2022/04/13 01:03:25;;;;;;;;;;;11.40;99.90;;;;;;4961903;28;19922;-78
2022/04/13 01:05:52;;;;;;;;;;;11.30;99.90;;;;;;4978299;28;20352;-78
2022/04/13 01:08:18;;;;;;;;;;;11.30;99.90;;;;;;4977666;28;19973;-78
2022/04/13 01:10:45;;;;;;;;;;;11.30;99.90;;;;;;4977577;28;19926;-78
2022/04/13 01:13:11;;;;;;;;;;;11.30;99.90;;;;;;4978098;28;20005;-78
2022/04/13 01:15:37;;;;;;;;;;;11.40;99.90;;;;;;4977230;28;20017;-78
2022/04/13 01:18:03;;;;;;;;;;;11.50;99.90;;;;;;4978058;28;19961;-78
2022/04/13 01:20:28;;;;;;;;;;;11.60;99.90;;;;;;4978133;28;19925;-78
2022/04/13 01:22:54;;;;;;;;;;;11.60;99.90;;;;;;4978063;28;20529;-78
2022/04/13 01:25:19;;;;;;;;;;;11.70;99.90;;;;;;4977886;28;19972;-78
2022/04/13 01:27:45;;;;;;;;;;;11.70;99.90;;;;;;4976689;28;20346;-78
2022/04/13 01:30:11;;;;;;;;;;;11.70;99.90;;;;;;4977719;28;19922;-78
2022/04/13 01:32:36;;;;;;;;;;;11.70;99.90;;;;;;4977955;28;19922;-78
2022/04/13 01:35:02;;;;;;;;;;;11.70;99.90;;;;;;4977925;28;20296;-78
2022/04/13 01:37:27;;;;;;;;;;;11.70;99.90;;;;;;4977795;28;19922;-78
2022/04/13 01:39:54;;;;;;;;;;;11.80;99.90;;;;;;4976595;28;19971;-78
2022/04/13 01:42:19;;;;;;;;;;;11.70;99.90;;;;;;4977753;28;19929;-78
2022/04/13 01:44:45;;;;;;;;;;;11.60;99.90;;;;;;4977049;28;19929;-78
2022/04/13 01:47:11;;;;;;;;;;;11.60;99.90;;;;;;4976900;28;19922;-78
2022/04/13 01:49:36;;;;;;;;;;;11.60;99.90;;;;;;4961536;28;19929;-78
2022/04/13 01:52:03;;;;;;;;;;;11.60;99.90;;;;;;4977382;28;19926;-77
2022/04/13 01:54:29;;;;;;;;;;;11.60;99.90;;;;;;4977055;28;19980;-78
2022/04/13 01:56:54;;;;;;;;;;;11.60;99.90;;;;;;4977498;28;19976;-78
2022/04/13 01:59:20;;;;;;;;;;;11.60;99.90;;;;;;4976388;28;20388;-78
2022/04/13 02:01:45;;;;;;;;;;;11.50;99.90;;;;;;4977369;28;19929;-78
2022/04/13 02:04:25;;;;;;;;;;;11.50;99.90;;;;;;4975691;28;19925;-78
2022/04/13 02:06:51;;;;;;;;;;;11.60;99.90;;;;;;4976932;28;19975;-78
2022/04/13 02:09:17;;;;;;;;;;;11.60;99.90;;;;;;4977291;28;19952;-77
2022/04/13 02:11:43;;;;;;;;;;;11.70;99.90;;;;;;4973662;28;19926;-78
2022/04/13 02:14:09;;;;;;;;;;;11.70;99.90;;;;;;4976354;28;20016;-78
2022/04/13 02:16:35;;;;;;;;;;;11.80;99.90;;;;;;4976781;28;19922;-78
2022/04/13 02:19:01;;;;;;;;;;;11.80;99.90;;;;;;4977185;28;19922;-78
2022/04/13 02:21:26;;;;;;;;;;;11.90;99.90;;;;;;4977418;28;19929;-78
2022/04/13 02:23:52;;;;;;;;;;;11.90;99.90;;;;;;4960779;28;19922;-78
2022/04/13 02:26:19;;;;;;;;;;;11.80;99.90;;;;;;4976706;28;19965;-78
2022/04/13 02:28:45;;;;;;;;;;;11.80;99.90;;;;;;4976684;28;19926;-78
2022/04/13 02:31:11;;;;;;;;;;;11.70;99.90;;;;;;4965888;28;19926;-78
2022/04/13 02:33:36;;;;;;;;;;;11.70;99.90;;;;;;4995555;28;19976;-78
2022/04/13 02:36:02;;;;;;;;;;;11.60;99.90;;;;;;4981822;28;20277;-78
2022/04/13 02:38:27;;;;;;;;;;;11.60;99.90;;;;;;4974017;28;20289;-78
2022/04/13 02:40:53;;;;;;;;;;;11.50;99.90;;;;;;4995800;28;20029;-77
2022/04/13 02:43:18;;;;;;;;;;;11.50;99.90;;;;;;4979178;28;19926;-77
2022/04/13 02:45:44;;;;;;;;;;;11.40;99.90;;;;;;4976965;28;20342;-77
2022/04/13 02:48:09;;;;;;;;;;;11.30;99.90;;;;;;4976516;28;19922;-78
2022/04/13 02:50:35;;;;;;;;;;;11.30;99.90;;;;;;4976714;28;19926;-78
2022/04/13 02:53:00;;;;;;;;;;;11.30;99.90;;;;;;4994227;28;19945;-78
2022/04/13 02:55:26;;;;;;;;;;;11.30;99.90;;;;;;4976470;28;19949;-78
2022/04/13 02:57:51;;;;;;;;;;;11.20;99.90;;;;;;4974300;28;19926;-77
2022/04/13 03:00:17;;;;;;;;;;;11.10;99.90;;;;;;4946169;28;20012;-78
2022/04/13 03:02:44;;;;;;;;;;;11.10;99.90;;;;;;4976254;28;19922;-78
2022/04/13 03:05:10;;;;;;;;;;;11.10;99.90;;;;;;4975876;28;19925;-78
2022/04/13 03:07:36;;;;;;;;;;;11.20;99.90;;;;;;4959790;28;20038;-78
2022/04/13 03:10:02;;;;;;;;;;;11.20;99.90;;;;;;4974089;28;19972;-78
2022/04/13 03:12:28;;;;;;;;;;;11.20;99.90;;;;;;4959874;28;19933;-78
2022/04/13 03:14:53;;;;;;;;;;;11.20;99.90;;;;;;4974025;28;20336;-78
2022/04/13 03:17:19;;;;;;;;;;;11.10;99.90;;;;;;4974723;28;19922;-78
2022/04/13 03:19:44;;;;;;;;;;;11.10;99.90;;;;;;4976092;28;19929;-78
2022/04/13 03:22:10;;;;;;;;;;;11.00;99.90;;;;;;4976195;28;19922;-77
2022/04/13 03:24:36;;;;;;;;;;;10.90;99.90;;;;;;4975436;28;19929;-78
2022/04/13 03:27:01;;;;;;;;;;;10.80;99.90;;;;;;4975660;28;19921;-78
2022/04/13 03:29:27;;;;;;;;;;;10.70;99.90;;;;;;4969388;28;20014;-78
2022/04/13 03:31:52;;;;;;;;;;;10.50;99.90;;;;;;4973155;28;19976;-78
2022/04/13 03:34:20;;;;;;;;;;;10.40;99.90;;;;;;4959490;28;19977;-78
2022/04/13 03:36:49;;;;;;;;;;;10.40;99.90;;;;;;4975433;28;19929;-78
2022/04/13 03:39:15;;;;;;;;;;;10.40;99.90;;;;;;4974414;28;19973;-78
2022/04/13 03:41:40;;;;;;;;;;;10.40;99.90;;;;;;4993269;28;19922;-78
2022/04/13 03:44:06;;;;;;;;;;;10.40;99.90;;;;;;4975513;28;19922;-78
2022/04/13 03:46:32;;;;;;;;;;;10.40;99.90;;;;;;4971964;28;19922;-78
2022/04/13 03:48:57;;;;;;;;;;;10.40;99.90;;;;;;4974804;28;20000;-78
2022/04/13 03:51:23;;;;;;;;;;;10.40;99.90;;;;;;4975413;28;20384;-78
2022/04/13 03:53:49;;;;;;;;;;;10.40;99.90;;;;;;4975465;28;19964;-78
2022/04/13 03:56:14;;;;;;;;;;;10.40;99.90;;;;;;4975078;28;19925;-78
2022/04/13 03:58:42;;;;;;;;;;;10.50;99.90;;;;;;4975521;28;19929;-78
2022/04/13 04:01:08;;;;;;;;;;;10.60;99.90;;;;;;4974698;28;19968;-78
2022/04/13 04:03:34;;;;;;;;;;;10.70;99.90;;;;;;4975449;28;19921;-78
2022/04/13 04:06:00;;;;;;;;;;;10.80;99.90;;;;;;4975391;28;19964;-78
2022/04/13 04:08:26;;;;;;;;;;;10.80;99.90;;;;;;4974890;28;19961;-78
2022/04/13 04:10:52;;;;;;;;;;;11.00;99.90;;;;;;4959143;28;19965;-78
2022/04/13 04:13:17;;;;;;;;;;;11.20;99.90;;;;;;4975176;28;19932;-78
2022/04/13 04:15:43;;;;;;;;;;;11.30;99.90;;;;;;4974848;28;20008;-78
2022/04/13 04:18:09;;;;;;;;;;;11.40;99.90;;;;;;4975033;28;19968;-78
2022/04/13 04:20:34;;;;;;;;;;;11.50;99.90;;;;;;4975132;28;19961;-78
2022/04/13 04:23:00;;;;;;;;;;;11.50;99.90;;;;;;4974723;28;19922;-78
2022/04/13 04:25:25;;;;;;;;;;;11.50;99.90;;;;;;4974311;28;19925;-78
2022/04/13 04:27:51;;;;;;;;;;;11.60;99.90;;;;;;4960011;28;20004;-77
2022/04/13 04:30:16;;;;;;;;;;;11.60;99.90;;;;;;4978956;28;19979;-77
2022/04/13 04:32:42;;;;;;;;;;;11.60;99.90;;;;;;4962813;28;19922;-77
2022/04/13 04:35:08;;;;;;;;;;;11.50;99.90;;;;;;4979133;28;19928;-78
2022/04/13 04:37:33;;;;;;;;;;;11.60;99.90;;;;;;4978987;28;19940;-78
2022/04/13 04:39:59;;;;;;;;;;;11.60;99.90;;;;;;4962846;28;19925;-78
2022/04/13 04:42:25;;;;;;;;;;;11.60;99.90;;;;;;4978829;28;19973;-78
2022/04/13 04:44:57;;;;;;;;;;;11.60;99.90;;;;;;4962356;28;20307;-78
2022/04/13 04:47:23;;;;;;;;;;;11.50;99.90;;;;;;4971745;28;19929;-78
2022/04/13 04:49:49;;;;;;;;;;;11.40;99.90;;;;;;4978922;28;20396;-78
2022/04/13 04:52:14;;;;;;;;;;;11.30;99.90;;;;;;4978597;28;19926;-78
2022/04/13 04:54:40;;;;;;;;;;;11.20;99.90;;;;;;4978511;28;20361;-78
2022/04/13 04:57:05;;;;;;;;;;;11.20;99.90;;;;;;4978252;28;19922;-78
2022/04/13 04:59:31;;;;;;;;;;;11.30;99.90;;;;;;4978764;28;19926;-78
2022/04/13 05:01:56;;;;;;;;;;;11.20;99.90;;;;;;4977997;28;20009;-78
2022/04/13 05:04:22;;;;;;;;;;;11.20;99.90;;;;;;4962310;28;19985;-78
2022/04/13 05:06:47;;;;;;;;;;;11.20;99.90;;;;;;4995537;28;19926;-77
2022/04/13 05:09:13;;;;;;;;;;;11.10;99.90;;;;;;4978799;28;19929;-77
2022/04/13 05:11:38;;;;;;;;;;;11.00;99.90;;;;;;4973299;28;19987;-77
2022/04/13 05:14:04;;;;;;;;;;;11.00;99.90;;;;;;4978282;28;19929;-77
2022/04/13 05:16:30;;;;;;;;;;;10.90;99.90;;;;;;4977861;28;19929;-78
2022/04/13 05:18:55;;;;;;;;;;;10.90;99.90;;;;;;4978180;28;19928;-78
2022/04/13 05:21:21;;;;;;;;;;;10.90;99.90;;;;;;4961927;28;19925;-78
2022/04/13 05:23:46;;;;;;;;;;;10.90;99.90;;;;;;4978558;28;20236;-78
2022/04/13 05:26:12;;;;;;;;;;;11.00;99.90;;;;;;4977715;28;19928;-78
2022/04/13 05:28:37;;;;;;;;;;;11.00;99.90;;;;;;4978047;28;19974;-78
2022/04/13 05:31:03;;;;;;;;;;;11.00;99.90;;;;;;4961143;28;19925;-78
2022/04/13 05:33:28;;;;;;;;;;;11.00;99.90;;;;;;4978042;28;19929;-78
2022/04/13 05:35:54;;;;;;;;;;;11.00;99.90;;;;;;4977817;28;19922;-78
2022/04/13 05:38:19;;;;;;;;;;;11.10;99.90;;;;;;4977775;28;20008;-78
2022/04/13 05:40:45;;;;;;;;;;;11.10;99.90;;;;;;4976839;28;19922;-78
2022/04/13 05:43:10;;;;;;;;;;;11.20;99.90;;;;;;4977574;28;19929;-78
2022/04/13 05:45:36;;;;;;;;;;;11.30;99.90;;;;;;4977025;28;20356;-78
2022/04/13 05:48:02;;;;;;;;;;;11.30;99.90;;;;;;4977572;28;19921;-78
2022/04/13 05:50:27;;;;;;;;;;;11.40;99.90;;;;;;4977519;28;20300;-78
2022/04/13 05:52:53;;;;;;;;;;;11.40;99.90;;;;;;4977748;28;19932;-78
2022/04/13 05:55:18;;;;;;;;;;;11.50;99.90;;;;;;4977535;28;20308;-78
2022/04/13 05:57:44;;;;;;;;;;;11.50;99.90;;;;;;4977196;28;20072;-78
2022/04/13 06:00:11;;;;;;;;;;;11.60;99.90;;;;;;4977525;28;19923;-78
2022/04/13 06:02:37;;;;;;;;;;;11.70;99.90;;;;;;4961234;28;20004;-78
2022/04/13 06:05:03;;;;;;;;;;;11.70;99.90;;;;;;4977369;28;19969;-78
2022/04/13 06:07:29;;;;;;;;;;;11.80;99.90;;;;;;4960742;28;19922;-78
2022/04/13 06:09:54;;;;;;;;;;;11.80;99.90;;;;;;4977213;28;19928;-78
2022/04/13 06:12:23;;;;;;;;;;;11.80;99.90;;;;;;4977026;28;20064;-78
2022/04/13 06:14:49;;;;;;;;;;;11.90;99.90;;;;;;4977502;28;19949;-78
2022/04/13 06:17:14;;;;;;;;;;;11.80;99.90;;;;;;4976773;28;19921;-78
2022/04/13 06:19:40;;;;;;;;;;;11.90;99.90;;;;;;4977024;28;19921;-78
2022/04/13 06:22:05;;;;;;;;;;;11.90;99.90;;;;;;4980752;28;19929;-78
2022/04/13 06:24:31;;;;;;;;;;;11.90;99.90;;;;;;4981645;28;19944;-78
2022/04/13 06:26:56;;;;;;;;;;;12.00;99.90;;;;;;4981832;28;19921;-78
2022/04/13 06:29:22;;;;;;;;;;;12.00;99.90;;;;;;4981015;28;19929;-78
2022/04/13 06:31:47;;;;;;;;;;;12.10;99.90;;;;;;4982007;28;19926;-78
2022/04/13 06:34:13;;;;;;;;;;;12.10;99.90;;;;;;4981195;28;20065;-78
2022/04/13 06:36:38;;;;;;;;;;;12.10;99.90;;;;;;4978061;28;19925;-78
2022/04/13 06:39:04;;;;;;;;;;;12.20;99.90;;;;;;4977898;28;19921;-78
2022/04/13 06:41:29;;;;;;;;;;;12.30;99.90;;;;;;4977998;28;19922;-78
2022/04/13 06:43:55;;;;;;;;;;;12.50;99.90;;;;;;4977465;28;19926;-78
2022/04/13 06:46:20;;;;;;;;;;;12.60;99.90;;;;;;4977726;28;19922;-78
2022/04/13 06:48:46;;;;;;;;;;;12.70;99.90;;;;;;4977177;28;20392;-78
2022/04/13 06:51:12;;;;;;;;;;;12.80;99.90;;;;;;4976763;28;19932;-78
2022/04/13 06:53:37;;;;;;;;;;;12.90;99.90;;;;;;4977216;28;19922;-78
2022/04/13 06:56:03;;;;;;;;;;;13.00;99.90;;;;;;4977012;28;19973;-78
2022/04/13 06:58:28;;;;;;;;;;;13.20;99.90;;;;;;4976801;28;20001;-78
2022/04/13 07:00:57;;;;;;;;;;;13.40;99.90;;;;;;4976774;28;20009;-79
2022/04/13 07:03:23;;;;;;;;;;;13.60;99.90;;;;;;4976641;28;19922;-78
2022/04/13 07:05:49;;;;;;;;;;;13.80;99.90;;;;;;4976521;28;19995;-78
2022/04/13 07:08:14;;;;;;;;;;;13.90;99.90;;;;;;4976755;28;20005;-78
2022/04/13 07:10:40;;;;;;;;;;;14.10;99.90;;;;;;4977156;28;19925;-78
2022/04/13 07:13:07;;;;;;;;;;;14.10;99.90;;;;;;4977728;28;20412;-79
2022/04/13 07:15:33;;;;;;;;;;;14.30;99.90;;;;;;4977795;28;20399;-79
2022/04/13 07:17:58;;;;;;;;;;;14.50;99.90;;;;;;4977766;28;19922;-79
2022/04/13 07:20:24;;;;;;;;;;;14.60;99.90;;;;;;4977741;28;19928;-78
2022/04/13 07:22:51;;;;;;;;;;;14.80;99.90;;;;;;4977903;28;19922;-78
2022/04/13 07:25:17;;;;;;;;;;;14.80;99.90;;;;;;4977537;28;20278;-78
2022/04/13 07:27:43;;;;;;;;;;;14.90;99.90;;;;;;4975869;28;19922;-79
2022/04/13 07:30:09;;;;;;;;;;;15.10;99.90;;;;;;4976379;28;20384;-78
2022/04/13 07:32:35;;;;;;;;;;;15.20;99.90;;;;;;4976217;28;19941;-79
2022/04/13 07:35:00;;;;;;;;;;;15.30;99.90;;;;;;4976493;28;19976;-78
2022/04/13 07:37:26;;;;;;;;;;;15.40;99.90;;;;;;4975938;28;19985;-79
2022/04/13 07:39:52;;;;;;;;;;;15.50;99.90;;;;;;4976534;28;19922;-78
2022/04/13 07:42:24;;;;;;;;;;;15.60;99.90;;;;;;4976082;28;19928;-78
2022/04/13 07:44:50;;;;;;;;;;;15.60;99.90;;;;;;4976102;28;19921;-79
2022/04/13 07:47:16;;;;;;;;;;;15.70;99.90;;;;;;4976048;28;19926;-78
2022/04/13 07:49:42;;;;;;;;;;;15.80;99.90;;;;;;4975739;28;20403;-78
2022/04/13 07:52:08;;;;;;;;;;;15.80;99.90;;;;;;4976081;28;19926;-78
2022/04/13 07:54:33;;;;;;;;;;;15.80;99.90;;;;;;4976062;28;20407;-78
2022/04/13 07:56:59;;;;;;;;;;;16.00;99.90;;;;;;4975330;28;20021;-79
2022/04/13 07:59:25;;;;;;;;;;;16.20;99.90;;;;;;4975538;28;20333;-79
2022/04/13 08:01:50;;;;;;;;;;;16.50;99.90;;;;;;4974865;28;20320;-79
2022/04/13 08:04:16;;;;;;;;;;;16.60;99.90;;;;;;4975269;28;19922;-79
2022/04/13 08:06:41;;;;;;;;;;;16.70;99.90;;;;;;4975099;28;19928;-79
2022/04/13 08:09:07;;;;;;;;;;;16.70;99.90;;;;;;4975131;28;19929;-79
2022/04/13 08:11:32;;;;;;;;;;;16.70;99.90;;;;;;4975033;28;20410;-79
2022/04/13 08:13:57;;;;;;;;;;;16.50;99.90;;;;;;4975116;28;19922;-78
2022/04/13 08:16:23;;;;;;;;;;;16.30;99.90;;;;;;4974780;28;20388;-79
2022/04/13 08:18:48;;;;;;;;;;;16.10;99.90;;;;;;4975983;28;19925;-79
2022/04/13 08:21:14;;;;;;;;;;;16.00;99.90;;;;;;4975933;28;19939;-79
2022/04/13 08:23:39;;;;;;;;;;;16.00;99.90;;;;;;4959892;28;19937;-79
2022/04/13 08:26:05;;;;;;;;;;;16.00;99.90;;;;;;4975174;28;19930;-80
2022/04/13 08:28:30;;;;;;;;;;;16.00;99.90;;;;;;4975866;28;19922;-79
2022/04/13 08:30:56;;;;;;;;;;;16.10;99.90;;;;;;4976154;28;20050;-80
2022/04/13 08:33:21;;;;;;;;;;;16.00;99.90;;;;;;4960134;28;20016;-79
2022/04/13 08:35:47;;;;;;;;;;;15.90;99.90;;;;;;4958521;28;19926;-79
2022/04/13 08:38:12;;;;;;;;;;;15.80;99.90;;;;;;4959082;28;19922;-79
2022/04/13 08:40:52;;;;;;;;;;;15.60;99.90;;;;;;4958890;28;19928;-79
2022/04/13 08:43:20;;;;;;;;;;;15.60;99.90;;;;;;4974997;28;19968;-79
2022/04/13 08:46:06;;;;;;;;;;;15.60;99.90;;;;;;4958972;28;20327;-79
2022/04/13 08:48:33;;;;;;;;;;;15.70;99.90;;;;;;4975250;28;19972;-79
2022/04/13 08:51:01;;;;;;;;;;;15.70;99.90;;;;;;4992397;28;19930;-80
2022/04/13 08:53:28;;;;;;;;;;;15.70;99.90;;;;;;4975165;28;19921;-80
2022/04/13 08:55:55;;;;;;;;;;;15.80;99.90;;;;;;4960401;28;20351;-80
2022/04/13 08:58:44;;;;;;;;;;;16.10;99.90;;;;;;4979111;28;20316;-80
2022/04/13 09:01:14;;;;;;;;;;;16.40;99.90;;;;;;4980104;28;19922;-81
2022/04/13 09:03:44;;;;;;;;;;;16.60;99.90;;;;;;4979973;28;19925;-80
2022/04/13 09:06:10;;;;;;;;;;;16.80;99.90;;;;;;4980015;28;19981;-80
2022/04/13 09:08:48;;;;;;;;;;;17.00;99.90;;;;;;4980732;28;19928;-81
2022/04/13 09:11:14;;;;;;;;;;;17.10;99.90;;;;;;4998409;28;19930;-81
2022/04/13 09:13:40;;;;;;;;;;;17.10;99.90;;;;;;4981727;28;20012;-81
2022/04/13 09:16:05;;;;;;;;;;;17.20;99.90;;;;;;4984418;28;19960;-80
2022/04/13 09:18:31;;;;;;;;;;;17.10;99.90;;;;;;4983353;28;19921;-80
2022/04/13 09:20:58;;;;;;;;;;;17.00;99.90;;;;;;4983418;28;19929;-80
2022/04/13 09:23:23;;;;;;;;;;;16.90;99.90;;;;;;4982728;28;19933;-80
2022/04/13 09:25:51;;;;;;;;;;;17.00;99.90;;;;;;4984822;28;19927;-81
2022/04/13 09:28:17;;;;;;;;;;;17.40;99.90;;;;;;4968408;28;19922;-80
2022/04/13 09:30:42;;;;;;;;;;;17.50;99.90;;;;;;4984704;28;19985;-80
2022/04/13 09:33:08;;;;;;;;;;;17.60;99.90;;;;;;4968744;28;19922;-81
2022/04/13 09:35:34;;;;;;;;;;;17.80;99.90;;;;;;4986366;28;19922;-81
2022/04/13 09:38:03;;;;;;;;;;;17.80;99.90;;;;;;4983826;28;19932;-81
2022/04/13 09:40:30;;;;;;;;;;;18.00;99.90;;;;;;4987177;28;20012;-81
2022/04/13 09:43:06;;;;;;;;;;;18.30;99.90;;;;;;4983716;28;20043;-81
2022/04/13 09:45:50;;;;;;;;;;;18.60;99.90;;;;;;4988238;28;19969;-80
2022/04/13 09:48:17;;;;;;;;;;;18.80;99.90;;;;;;4986301;28;20401;-81
2022/04/13 09:50:44;;;;;;;;;;;19.10;99.90;;;;;;4987363;28;19922;-81
2022/04/13 09:53:10;;;;;;;;;;;19.30;99.90;;;;;;4983721;28;20088;-81
2022/04/13 09:55:38;;;;;;;;;;;19.60;99.90;;;;;;4985277;28;19929;-81
2022/04/13 09:58:07;;;;;;;;;;;19.90;99.90;;;;;;4986069;28;20004;-80
2022/04/13 10:00:33;;;;;;;;;;;20.10;99.90;;;;;;4985480;28;19922;-81
2022/04/13 10:03:09;;;;;;;;;;;20.30;99.90;;;;;;4985001;28;19932;-79
2022/04/13 10:05:35;;;;;;;;;;;20.50;99.90;;;;;;4979371;28;19926;-79
2022/04/13 10:08:10;;;;;;;;;;;20.60;99.90;;;;;;4961132;28;19944;-79
2022/04/13 10:10:39;;;;;;;;;;;20.50;99.90;;;;;;4960886;28;19921;-79
2022/04/13 10:13:05;;;;;;;;;;;20.20;99.90;;;;;;4977173;28;19921;-79
2022/04/13 10:15:30;;;;;;;;;;;20.30;99.90;;;;;;4977317;28;19929;-79
2022/04/13 10:17:57;;;;;;;;;;;20.40;99.90;;;;;;4977055;28;19960;-79
2022/04/13 10:20:22;;;;;;;;;;;20.60;99.90;;;;;;4977154;28;19961;-80
2022/04/13 10:23:01;;;;;;;;;;;20.60;99.90;;;;;;4977384;28;19968;-79
2022/04/13 10:25:27;;;;;;;;;;;20.70;99.90;;;;;;4976560;28;19929;-79
2022/04/13 10:27:53;;;;;;;;;;;21.00;95.60;;;;;;4977246;28;19918;-79
2022/04/13 10:30:25;;;;;;;;;;;21.20;96.00;;;;;;4977155;28;20184;-79
2022/04/13 10:32:58;;;;;;;;;;;21.20;93.10;;;;;;4976828;28;19926;-79
2022/04/13 10:35:23;;;;;;;;;;;21.10;97.60;;;;;;4977028;28;20285;-80
2022/04/13 10:37:49;;;;;;;;;;;20.90;93.50;;;;;;4977284;28;19925;-79
2022/04/13 10:40:14;;;;;;;;;;;20.70;93.50;;;;;;4960700;28;19922;-79
2022/04/13 10:42:43;;;;;;;;;;;20.80;90.80;;;;;;4977061;28;19921;-79
2022/04/13 10:45:09;;;;;;;;;;;20.80;95.10;;;;;;4976820;28;19922;-80
2022/04/13 10:47:34;;;;;;;;;;;20.40;92.70;;;;;;4976632;28;20356;-79
2022/04/13 10:50:04;;;;;;;;;;;20.30;93.80;;;;;;4977876;28;19921;-81
2022/04/13 10:52:33;;;;;;;;;;;20.00;94.30;;;;;;4979196;28;19930;-80
2022/04/13 10:55:04;;;;;;;;;;;19.70;92.40;;;;;;4980988;28;19925;-80
2022/04/13 10:57:35;;;;;;;;;;;19.70;96.50;;;;;;4977597;28;19926;-80
2022/04/13 11:00:03;;;;;;;;;;;19.70;96.00;;;;;;4978428;28;19929;-80
2022/04/13 11:02:41;;;;;;;;;;;19.80;97.10;;;;;;4977673;28;19922;-81
2022/04/13 11:05:06;;;;;;;;;;;19.90;97.50;;;;;;4963455;28;20285;-80
2022/04/13 11:07:32;;;;;;;;;;;19.70;95.30;;;;;;4978195;28;19929;-79
2022/04/13 11:09:58;;;;;;;;;;;19.70;95.50;;;;;;4977886;28;20384;-80
2022/04/13 11:12:24;;;;;;;;;;;19.70;95.40;;;;;;4976861;28;20337;-80
2022/04/13 11:14:51;;;;;;;;;;;20.10;96.00;;;;;;4979507;28;19932;-80
2022/04/13 11:17:16;;;;;;;;;;;20.30;91.70;;;;;;4979111;28;19968;-80
2022/04/13 11:19:42;;;;;;;;;;;20.40;90.00;;;;;;4961428;28;20040;-80
2022/04/13 11:22:09;;;;;;;;;;;20.40;89.50;;;;;;4985557;28;19922;-82
2022/04/13 11:24:39;;;;;;;;;;;20.20;90.50;;;;;;4968468;28;19957;-80
2022/04/13 11:27:05;;;;;;;;;;;20.10;91.00;;;;;;4984457;28;19922;-81
2022/04/13 11:29:35;;;;;;;;;;;19.80;90.30;;;;;;4981650;28;20392;-80
2022/04/13 11:32:00;;;;;;;;;;;19.70;93.00;;;;;;4982955;28;19969;-81
2022/04/13 11:34:32;;;;;;;;;;;19.60;90.80;;;;;;4977482;28;19929;-79
2022/04/13 11:36:58;;;;;;;;;;;19.60;94.20;;;;;;4975625;28;19921;-79
2022/04/13 11:39:42;;;;;;;;;;;19.70;94.20;;;;;;4976043;28;19929;-78
2022/04/13 11:42:13;;;;;;;;;;;19.60;92.10;;;;;;4975950;28;19932;-79
2022/04/13 11:44:48;;;;;;;;;;;19.60;92.40;;;;;;4993304;28;19926;-79
2022/04/13 11:47:14;;;;;;;;;;;19.50;93.10;;;;;;4975913;28;20025;-79
2022/04/13 11:49:56;;;;;;;;;;;19.50;94.70;;;;;;4975988;28;19922;-78
2022/04/13 11:52:42;;;;;;;;;;;19.50;92.90;;;;;;4980905;28;20414;-78
2022/04/13 11:55:17;;;;;;;;;;;19.30;94.20;;;;;;4965252;28;20287;-78
2022/04/13 11:57:59;;;;;;;;;;;19.30;94.80;;;;;;4981091;28;19925;-78
2022/04/13 12:00:45;;;;;;;;;;;19.20;97.90;;;;;;4988810;28;19921;-79
2022/04/13 12:03:15;;;;;;;;;;;19.30;98.90;;;;;;4985439;28;19976;-79
2022/04/13 12:05:41;;;;;;;;;;;19.30;97.30;;;;;;4986702;28;19982;-80
2022/04/13 12:08:14;;;;;;;;;;;19.20;95.80;;;;;;4981555;28;19953;-79
2022/04/13 12:10:51;;;;;;;;;;;19.10;95.60;;;;;;4964880;28;19922;-79
2022/04/13 12:13:16;;;;;;;;;;;19.00;94.30;;;;;;4980604;28;19922;-79
2022/04/13 12:15:43;;;;;;;;;;;18.90;94.80;;;;;;4979077;28;19922;-79
2022/04/13 12:18:09;;;;;;;;;;;19.00;95.30;;;;;;4980912;28;20123;-80
2022/04/13 12:20:35;;;;;;;;;;;19.20;93.90;;;;;;4964743;28;19921;-79
2022/04/13 12:23:13;;;;;;;;;;;19.40;94.40;;;;;;4980476;28;19976;-79
2022/04/13 12:25:46;;;;;;;;;;;19.70;94.90;;;;;;4979921;28;19922;-80
2022/04/13 12:28:12;;;;;;;;;;;19.60;93.80;;;;;;4979528;28;19945;-79
2022/04/13 12:30:38;;;;;;;;;;;19.60;95.80;;;;;;4978984;28;19926;-79
2022/04/13 12:33:15;;;;;;;;;;;19.60;92.20;;;;;;4980695;28;19991;-79
2022/04/13 12:35:48;;;;;;;;;;;19.50;89.10;;;;;;4979599;28;19922;-80
2022/04/13 12:38:21;;;;;;;;;;;19.40;91.50;;;;;;4958917;28;19976;-79
2022/04/13 12:40:47;;;;;;;;;;;19.30;91.20;;;;;;4958574;28;19929;-79
2022/04/13 12:43:23;;;;;;;;;;;19.20;89.70;;;;;;4958739;28;19922;-79
2022/04/13 12:45:49;;;;;;;;;;;19.10;91.10;;;;;;4942584;28;20057;-79
2022/04/13 12:48:14;;;;;;;;;;;19.00;90.60;;;;;;4957871;28;19954;-79
2022/04/13 12:50:53;;;;;;;;;;;18.90;90.70;;;;;;4963229;28;19922;-79
2022/04/13 12:53:18;;;;;;;;;;;18.80;92.10;;;;;;4965201;28;19928;-79
2022/04/13 12:55:54;;;;;;;;;;;18.80;93.00;;;;;;4980484;28;20012;-79
2022/04/13 12:58:20;;;;;;;;;;;18.80;93.20;;;;;;4998977;28;20380;-79
2022/04/13 13:00:46;;;;;;;;;;;18.70;92.90;;;;;;4981637;28;19928;-79
2022/04/13 13:03:11;;;;;;;;;;;18.60;93.10;;;;;;4964345;28;19922;-79
2022/04/13 13:05:37;;;;;;;;;;;18.40;94.40;;;;;;4979213;28;20558;-79
2022/04/13 13:08:05;;;;;;;;;;;18.20;96.60;;;;;;4980931;28;19953;-79
2022/04/13 13:10:32;;;;;;;;;;;18.10;97.50;;;;;;4980417;28;19922;-79
2022/04/13 13:13:17;;;;;;;;;;;17.90;99.90;;;;;;4980943;28;19925;-79
2022/04/13 13:15:43;;;;;;;;;;;17.90;99.90;;;;;;4963229;28;19976;-79
2022/04/13 13:18:08;;;;;;;;;;;17.90;99.90;;;;;;4979755;28;20389;-79
2022/04/13 13:20:35;;;;;;;;;;;17.90;99.90;;;;;;4979250;28;19922;-79
2022/04/13 13:23:07;;;;;;;;;;;17.80;99.90;;;;;;4979557;28;19965;-79
2022/04/13 13:25:42;;;;;;;;;;;17.70;99.90;;;;;;4978732;28;19922;-79
2022/04/13 13:28:09;;;;;;;;;;;17.70;99.90;;;;;;4979454;28;19921;-79
2022/04/13 13:30:39;;;;;;;;;;;17.60;99.90;;;;;;4996376;28;20198;-79
2022/04/13 13:33:07;;;;;;;;;;;17.60;99.90;;;;;;4978487;28;19929;-79
2022/04/13 13:35:34;;;;;;;;;;;17.60;99.90;;;;;;4978554;28;19929;-79
2022/04/13 13:38:04;;;;;;;;;;;17.70;99.90;;;;;;4978419;28;19933;-79
2022/04/13 13:40:35;;;;;;;;;;;17.70;98.80;;;;;;4978124;28;20392;-80
2022/04/13 13:43:02;;;;;;;;;;;17.80;98.50;;;;;;4978022;28;19929;-79
2022/04/13 13:45:28;;;;;;;;;;;17.90;97.40;;;;;;4978613;28;20395;-80
2022/04/13 13:47:54;;;;;;;;;;;18.00;96.10;;;;;;4978484;28;19957;-79
2022/04/13 13:50:20;;;;;;;;;;;18.00;96.50;;;;;;4978228;28;20348;-80
2022/04/13 13:52:45;;;;;;;;;;;17.90;95.90;;;;;;4974583;28;19926;-79
2022/04/13 13:55:11;;;;;;;;;;;17.80;95.60;;;;;;4963325;28;20296;-80
2022/04/13 13:57:36;;;;;;;;;;;17.60;93.20;;;;;;4977091;28;19921;-79
2022/04/13 14:00:03;;;;;;;;;;;17.50;93.60;;;;;;4981819;28;20024;-79
2022/04/13 14:02:28;;;;;;;;;;;17.40;93.20;;;;;;4977595;28;19922;-79
2022/04/13 14:04:54;;;;;;;;;;;17.20;93.80;;;;;;4976354;28;19922;-79
2022/04/13 14:07:19;;;;;;;;;;;17.10;95.00;;;;;;4976862;28;19933;-79
2022/04/13 14:09:46;;;;;;;;;;;17.00;95.60;;;;;;4975723;28;19922;-79
2022/04/13 14:12:12;;;;;;;;;;;16.90;95.60;;;;;;4977016;28;19976;-79
2022/04/13 14:18:00;;;;;;;;;;;16.80;96.60;;;;;;4996883;28;20376;-79
2022/04/13 14:20:26;;;;;;;;;;;16.80;99.90;;;;;;4961124;28;19922;-79